createdAt,value
2018-08-25T00:01:38.466Z,27.00
2018-08-25T00:04:06.886Z,27.00
2018-08-25T00:06:35.304Z,27.00
2018-08-25T00:09:04.239Z,27.00
2018-08-25T00:11:32.672Z,27.00
2018-08-25T00:14:01.345Z,27.00
2018-08-25T00:16:29.767Z,27.00
2018-08-25T00:18:58.177Z,27.00
2018-08-25T00:21:26.600Z,27.00
2018-08-25T00:23:55.010Z,26.90
2018-08-25T00:26:23.414Z,27.00
2018-08-25T00:28:51.825Z,27.00
2018-08-25T00:31:22.932Z,27.00
2018-08-25T00:33:52.130Z,26.90
2018-08-25T00:36:20.570Z,27.00
2018-08-25T00:38:48.979Z,26.90
2018-08-25T00:41:17.390Z,27.00
2018-08-25T00:43:45.971Z,27.00
2018-08-25T00:46:14.629Z,27.00
2018-08-25T00:48:43.058Z,26.90
2018-08-25T00:51:11.475Z,27.00
2018-08-25T00:53:39.909Z,26.90
2018-08-25T00:56:08.371Z,27.00
2018-08-25T00:58:36.806Z,26.90
2018-08-25T01:01:05.438Z,26.90
2018-08-25T01:03:33.862Z,26.90
2018-08-25T01:06:02.283Z,26.90
2018-08-25T01:08:30.726Z,26.90
2018-08-25T01:10:59.166Z,26.90
2018-08-25T01:13:27.612Z,26.90
2018-08-25T01:15:57.034Z,26.90
2018-08-25T01:18:25.462Z,26.90
2018-08-25T01:20:53.894Z,26.90
2018-08-25T01:23:22.556Z,26.90
2018-08-25T01:25:50.969Z,26.90
2018-08-25T01:28:19.386Z,26.90
2018-08-25T01:30:47.826Z,26.90
2018-08-25T01:33:16.345Z,26.90
2018-08-25T01:35:44.796Z,26.90
2018-08-25T01:38:13.222Z,26.90
2018-08-25T01:40:41.640Z,26.90
2018-08-25T01:43:10.063Z,26.90
2018-08-25T01:45:38.605Z,26.90
2018-08-25T01:48:07.038Z,26.90
2018-08-25T01:50:35.468Z,26.90
2018-08-25T01:53:03.910Z,26.90
2018-08-25T01:55:32.348Z,26.90
2018-08-25T01:58:00.778Z,26.80
2018-08-25T02:00:29.205Z,26.90
2018-08-25T02:02:57.643Z,26.90
2018-08-25T02:05:29.773Z,26.90
2018-08-25T02:07:59.683Z,26.80
2018-08-25T02:10:28.267Z,26.90
2018-08-25T02:12:56.746Z,26.90
2018-08-25T02:15:25.203Z,26.90
2018-08-25T02:17:53.673Z,26.80
2018-08-25T02:20:22.091Z,26.90
2018-08-25T02:22:50.514Z,26.80
2018-08-25T02:25:18.958Z,26.80
2018-08-25T02:27:47.406Z,26.80
2018-08-25T02:30:16.031Z,26.80
2018-08-25T02:32:44.571Z,26.80
2018-08-25T02:35:12.994Z,26.80
2018-08-25T02:37:41.417Z,26.80
2018-08-25T02:40:09.853Z,26.80
2018-08-25T02:42:38.318Z,26.80
2018-08-25T02:45:06.744Z,26.80
2018-08-25T02:47:35.493Z,26.80
2018-08-25T02:50:03.926Z,26.80
2018-08-25T02:52:32.463Z,26.80
2018-08-25T02:55:00.926Z,26.80
2018-08-25T02:57:29.378Z,26.80
2018-08-25T02:59:57.798Z,26.80
2018-08-25T03:02:26.225Z,26.80
2018-08-25T03:04:54.707Z,26.80
2018-08-25T03:07:23.138Z,26.80
2018-08-25T03:09:51.573Z,26.80
2018-08-25T03:12:19.993Z,26.70
2018-08-25T03:14:48.495Z,26.70
2018-08-25T03:17:16.909Z,26.70
2018-08-25T03:19:45.359Z,26.70
2018-08-25T03:22:13.799Z,26.70
2018-08-25T03:24:42.263Z,26.70
2018-08-25T03:27:10.705Z,26.70
2018-08-25T03:29:39.141Z,26.70
2018-08-25T03:32:07.732Z,26.70
2018-08-25T03:34:36.185Z,26.70
2018-08-25T03:37:04.614Z,26.70
2018-08-25T03:39:33.035Z,26.70
2018-08-25T03:42:01.471Z,26.70
2018-08-25T03:44:29.894Z,26.70
2018-08-25T03:46:58.370Z,26.70
2018-08-25T03:49:26.802Z,26.70
2018-08-25T03:51:55.225Z,26.70
2018-08-25T03:54:23.766Z,26.70
2018-08-25T03:56:52.215Z,26.70
2018-08-25T03:59:20.702Z,26.70
2018-08-25T04:01:49.235Z,26.70
2018-08-25T04:04:17.797Z,26.70
2018-08-25T04:06:46.241Z,26.70
2018-08-25T04:09:15.206Z,26.70
2018-08-25T04:11:43.778Z,26.70
2018-08-25T04:14:13.195Z,26.70
2018-08-25T04:16:41.641Z,26.70
2018-08-25T04:19:19.967Z,26.60
2018-08-25T04:21:48.997Z,26.60
2018-08-25T04:24:17.464Z,26.60
2018-08-25T04:26:46.215Z,26.60
2018-08-25T04:29:14.867Z,26.60
2018-08-25T04:31:43.296Z,26.60
2018-08-25T04:34:11.779Z,26.60
2018-08-25T04:36:40.238Z,26.60
2018-08-25T04:39:09.625Z,26.60
2018-08-25T04:41:38.093Z,26.60
2018-08-25T04:44:06.878Z,26.60
2018-08-25T04:46:35.357Z,26.60
2018-08-25T04:49:03.804Z,26.60
2018-08-25T04:51:32.323Z,26.60
2018-08-25T04:54:01.045Z,26.60
2018-08-25T04:56:29.502Z,26.60
2018-08-25T04:58:57.950Z,26.60
2018-08-25T05:01:26.390Z,26.60
2018-08-25T05:03:54.838Z,26.60
2018-08-25T05:06:23.420Z,26.60
2018-08-25T05:08:51.890Z,26.60
2018-08-25T05:11:20.331Z,26.60
2018-08-25T05:13:48.921Z,26.60
2018-08-25T05:16:17.395Z,26.50
2018-08-25T05:18:45.832Z,26.60
2018-08-25T05:21:14.349Z,26.60
2018-08-25T05:23:42.821Z,26.50
2018-08-25T05:26:11.628Z,26.60
2018-08-25T05:28:40.091Z,26.50
2018-08-25T05:31:08.966Z,26.60
2018-08-25T05:33:37.752Z,26.50
2018-08-25T05:36:06.199Z,26.60
2018-08-25T05:38:34.699Z,26.60
2018-08-25T05:41:03.151Z,26.50
2018-08-25T05:43:31.609Z,26.60
2018-08-25T05:46:00.219Z,26.60
2018-08-25T05:48:28.650Z,26.50
2018-08-25T05:50:57.109Z,26.60
2018-08-25T05:53:25.552Z,26.50
2018-08-25T05:55:54.008Z,26.50
2018-08-25T05:58:22.534Z,26.50
2018-08-25T06:00:51.019Z,26.60
2018-08-25T06:03:19.999Z,26.60
2018-08-25T06:05:48.456Z,26.50
2018-08-25T06:08:17.052Z,26.60
2018-08-25T06:10:45.818Z,26.50
2018-08-25T06:13:14.618Z,26.50
2018-08-25T06:15:43.104Z,26.50
2018-08-25T06:18:11.567Z,26.60
2018-08-25T06:20:40.002Z,26.50
2018-08-25T06:23:08.474Z,26.50
2018-08-25T06:25:36.969Z,26.60
2018-08-25T06:28:05.547Z,26.50
2018-08-25T06:30:34.170Z,26.50
2018-08-25T06:33:02.612Z,26.50
2018-08-25T06:35:31.076Z,26.50
2018-08-25T06:37:59.534Z,26.50
2018-08-25T06:40:27.995Z,26.50
2018-08-25T06:42:56.450Z,26.50
2018-08-25T06:45:24.925Z,26.60
2018-08-25T06:47:53.470Z,26.60
2018-08-25T06:50:22.279Z,26.50
2018-08-25T06:52:51.075Z,26.50
2018-08-25T06:55:21.299Z,26.50
2018-08-25T06:57:50.753Z,26.50
2018-08-25T07:00:19.193Z,26.60
2018-08-25T07:02:47.814Z,26.60
2018-08-25T07:05:16.250Z,26.60
2018-08-25T07:07:44.700Z,26.60
2018-08-25T07:10:13.282Z,26.60
2018-08-25T07:12:41.897Z,26.60
2018-08-25T07:15:10.305Z,26.60
2018-08-25T07:17:38.816Z,26.60
2018-08-25T07:20:07.312Z,26.60
2018-08-25T07:22:35.768Z,26.70
2018-08-25T07:25:04.198Z,26.70
2018-08-25T07:27:32.701Z,26.70
2018-08-25T07:30:01.202Z,26.70
2018-08-25T07:32:31.488Z,26.70
2018-08-25T07:34:59.998Z,26.80
2018-08-25T07:42:17.222Z,26.60
2018-08-25T07:44:46.118Z,26.70
2018-08-25T07:47:16.128Z,26.70
2018-08-25T07:49:44.770Z,26.80
2018-08-25T07:52:13.363Z,26.80
2018-08-25T07:54:41.812Z,26.90
2018-08-25T07:57:10.301Z,26.90
2018-08-25T07:59:39.454Z,26.90
2018-08-25T08:02:08.335Z,26.90
2018-08-25T08:04:37.357Z,26.90
2018-08-25T08:07:05.800Z,26.90
2018-08-25T08:09:34.325Z,26.90
2018-08-25T08:12:02.850Z,27.00
2018-08-25T08:14:31.294Z,27.00
2018-08-25T08:16:59.794Z,27.00
2018-08-25T08:19:28.311Z,27.00
2018-08-25T08:21:57.033Z,27.00
2018-08-25T08:24:25.740Z,27.00
2018-08-25T08:26:54.565Z,27.00
2018-08-25T08:29:23.300Z,27.00
2018-08-25T08:31:52.057Z,27.00
2018-08-25T08:34:20.780Z,27.00
2018-08-25T08:36:49.565Z,27.00
2018-08-25T08:39:18.414Z,27.00
2018-08-25T08:41:47.144Z,27.00
2018-08-25T08:44:15.722Z,27.00
2018-08-25T08:46:45.021Z,27.00
2018-08-25T08:49:13.802Z,27.00
2018-08-25T08:51:42.398Z,27.00
2018-08-25T08:54:11.042Z,27.00
2018-08-25T08:56:39.597Z,27.00
2018-08-25T08:59:08.469Z,27.00
2018-08-25T09:01:37.157Z,27.00
2018-08-25T09:04:06.068Z,27.00
2018-08-25T09:06:35.165Z,27.00
2018-08-25T09:09:04.733Z,26.90
2018-08-25T09:11:33.568Z,27.00
2018-08-25T09:14:02.288Z,27.00
2018-08-25T09:16:31.047Z,27.00
2018-08-25T09:18:59.878Z,26.90
2018-08-25T09:21:28.512Z,27.00
2018-08-25T09:23:57.284Z,27.00
2018-08-25T09:26:26.059Z,27.00
2018-08-25T09:28:54.756Z,26.90
2018-08-25T09:31:23.758Z,26.90
2018-08-25T09:33:52.305Z,27.00
2018-08-25T09:36:22.256Z,26.90
2018-08-25T09:38:52.373Z,26.90
2018-08-25T09:41:22.544Z,26.90
2018-08-25T09:43:51.939Z,26.90
2018-08-25T09:46:20.764Z,26.90
2018-08-25T09:48:49.620Z,26.90
2018-08-25T09:51:18.358Z,26.90
2018-08-25T09:53:47.164Z,26.90
2018-08-25T09:56:15.986Z,26.90
2018-08-25T09:58:44.533Z,26.90
2018-08-25T10:01:18.756Z,26.90
2018-08-25T10:03:47.715Z,26.90
2018-08-25T10:06:16.451Z,26.90
2018-08-25T10:08:45.337Z,26.80
2018-08-25T10:11:15.384Z,26.90
2018-08-25T10:13:44.720Z,26.90
2018-08-25T10:16:14.144Z,26.90
2018-08-25T10:18:43.819Z,26.90
2018-08-25T10:21:13.113Z,26.90
2018-08-25T10:23:41.945Z,26.90
2018-08-25T10:26:10.712Z,26.90
2018-08-25T10:28:39.661Z,26.80
2018-08-25T10:31:08.451Z,26.80
2018-08-25T10:33:37.298Z,26.90
2018-08-25T10:36:06.904Z,26.80
2018-08-25T10:38:35.645Z,26.80
2018-08-25T10:41:04.309Z,26.80
2018-08-25T10:43:33.015Z,26.80
2018-08-25T10:46:01.700Z,26.80
2018-08-25T10:48:30.231Z,26.80
2018-08-25T10:50:58.878Z,26.80
2018-08-25T10:53:27.724Z,26.80
2018-08-25T10:55:56.717Z,26.80
2018-08-25T10:58:25.504Z,26.80
2018-08-25T11:00:54.304Z,26.80
2018-08-25T11:03:22.739Z,26.80
2018-08-25T11:05:52.503Z,26.80
2018-08-25T11:08:21.268Z,26.70
2018-08-25T11:10:51.502Z,26.80
2018-08-25T11:13:20.776Z,26.80
2018-08-25T11:15:49.704Z,26.80
2018-08-25T11:18:18.924Z,26.80
2018-08-25T11:20:47.932Z,26.70
2018-08-25T11:23:17.593Z,26.80
2018-08-25T11:25:46.652Z,26.80
2018-08-25T11:28:15.287Z,26.80
2018-08-25T11:30:43.971Z,26.80
2018-08-25T11:33:13.084Z,26.80
2018-08-25T11:35:41.953Z,26.80
2018-08-25T11:38:10.712Z,26.80
2018-08-25T11:40:39.378Z,26.70
2018-08-25T11:43:08.011Z,26.80
2018-08-25T11:45:36.993Z,26.80
2018-08-25T11:48:05.610Z,26.80
2018-08-25T11:50:34.170Z,26.80
2018-08-25T11:53:02.757Z,26.70
2018-08-25T11:55:31.649Z,26.80
2018-08-25T11:58:00.579Z,26.80
2018-08-25T12:00:29.407Z,26.70
2018-08-25T12:02:58.035Z,26.70
2018-08-25T12:05:26.866Z,26.70
2018-08-25T12:07:55.643Z,26.80
2018-08-25T12:10:24.179Z,26.70
2018-08-25T12:12:53.000Z,26.70
2018-08-25T12:15:21.626Z,26.70
2018-08-25T12:17:50.151Z,26.70
2018-08-25T12:20:18.856Z,26.70
2018-08-25T12:22:47.531Z,26.70
2018-08-25T12:25:16.172Z,26.70
2018-08-25T12:27:44.750Z,26.70
2018-08-25T12:30:13.875Z,26.70
2018-08-25T12:32:42.552Z,26.80
2018-08-25T12:35:11.188Z,26.80
2018-08-25T12:37:39.942Z,26.80
2018-08-25T12:40:08.691Z,26.80
2018-08-25T12:42:37.294Z,26.70
2018-08-25T12:45:06.046Z,26.70
2018-08-25T12:47:34.681Z,26.80
2018-08-25T12:50:03.582Z,26.70
2018-08-25T12:52:32.444Z,26.80
2018-08-25T12:55:01.094Z,26.80
2018-08-25T12:57:30.282Z,26.70
2018-08-25T12:59:58.939Z,26.80
2018-08-25T13:02:27.555Z,26.80
2018-08-25T13:04:56.236Z,26.80
2018-08-25T13:07:25.057Z,26.70
2018-08-25T13:09:53.753Z,26.80
2018-08-25T13:12:22.382Z,26.70
2018-08-25T13:14:51.160Z,26.80
2018-08-25T13:17:19.822Z,26.80
2018-08-25T13:19:48.266Z,26.80
2018-08-25T13:22:16.803Z,26.80
2018-08-25T13:24:45.268Z,26.80
2018-08-25T13:27:13.918Z,26.80
2018-08-25T13:29:42.454Z,26.80
2018-08-25T13:33:42.313Z,26.80
2018-08-25T13:36:10.746Z,26.80
2018-08-25T13:38:39.192Z,26.80
2018-08-25T13:41:07.744Z,26.80
2018-08-25T13:43:36.201Z,26.80
2018-08-25T13:46:05.600Z,26.80
2018-08-25T13:48:34.357Z,26.80
2018-08-25T13:51:02.834Z,26.80
2018-08-25T13:53:32.993Z,26.80
2018-08-25T13:56:01.453Z,26.80
2018-08-25T13:58:29.905Z,26.80
2018-08-25T14:00:58.401Z,26.80
2018-08-25T14:03:27.074Z,26.80
2018-08-25T14:05:55.679Z,26.80
2018-08-25T14:08:24.441Z,26.90
2018-08-25T14:10:52.824Z,27.10
2018-08-25T14:13:21.446Z,27.20
2018-08-25T14:15:50.208Z,27.20
2018-08-25T14:18:18.608Z,27.10
2018-08-25T14:20:47.054Z,27.10
2018-08-25T14:23:15.539Z,27.00
2018-08-25T14:25:44.117Z,26.90
2018-08-25T14:28:12.646Z,26.90
2018-08-25T14:30:41.583Z,26.80
2018-08-25T14:33:10.265Z,26.80
2018-08-25T14:35:39.307Z,26.70
2018-08-25T14:38:07.873Z,26.70
2018-08-25T14:40:36.613Z,26.60
2018-08-25T14:43:05.050Z,26.60
2018-08-25T14:45:33.492Z,26.60
2018-08-25T14:48:02.042Z,26.50
2018-08-25T14:50:30.542Z,26.50
2018-08-25T14:52:59.125Z,26.50
2018-08-25T14:55:27.697Z,26.40
2018-08-25T14:57:56.148Z,26.40
2018-08-25T15:00:24.626Z,26.40
2018-08-25T15:02:53.237Z,26.40
2018-08-25T15:05:22.104Z,26.40
2018-08-25T15:07:51.596Z,26.40
2018-08-25T15:10:21.030Z,26.30
2018-08-25T15:12:49.485Z,26.30
2018-08-25T15:15:17.869Z,26.30
2018-08-25T15:17:46.084Z,26.40
2018-08-25T15:20:14.772Z,26.40
2018-08-25T15:22:44.154Z,26.40
2018-08-25T15:25:12.600Z,26.40
2018-08-25T15:27:40.844Z,26.40
2018-08-25T15:30:08.992Z,26.50
2018-08-25T15:32:37.318Z,26.50
2018-08-25T15:35:05.675Z,26.50
2018-08-25T15:37:34.056Z,26.50
2018-08-25T15:40:02.343Z,26.50
2018-08-25T15:42:30.574Z,26.50
2018-08-25T15:44:58.751Z,26.50
2018-08-25T15:47:27.024Z,26.50
2018-08-25T15:49:55.329Z,26.60
2018-08-25T15:52:23.784Z,26.60
2018-08-25T15:54:52.102Z,26.60
2018-08-25T15:57:20.586Z,26.60
2018-08-25T15:59:48.980Z,26.60
2018-08-25T16:02:17.196Z,26.60
2018-08-25T16:04:45.692Z,26.60
2018-08-25T16:07:13.863Z,26.60
2018-08-25T16:09:43.100Z,26.60
2018-08-25T16:12:11.359Z,26.60
2018-08-25T16:14:39.775Z,26.60
2018-08-25T16:17:08.168Z,26.50
2018-08-25T16:19:36.359Z,26.50
2018-08-25T16:22:04.787Z,26.50
2018-08-25T16:24:32.998Z,26.50
2018-08-25T16:27:01.207Z,26.50
2018-08-25T16:29:29.480Z,26.50
2018-08-25T16:31:57.843Z,26.40
2018-08-25T16:34:26.170Z,26.40
2018-08-25T16:36:54.376Z,26.40
2018-08-25T16:39:22.545Z,26.40
2018-08-25T16:41:51.247Z,26.30
2018-08-25T16:44:19.423Z,26.40
2018-08-25T16:46:48.129Z,26.40
2018-08-25T16:49:16.561Z,26.30
2018-08-25T16:51:44.721Z,26.30
2018-08-25T16:54:12.957Z,26.20
2018-08-25T16:56:41.130Z,26.20
2018-08-25T16:59:09.747Z,26.20
2018-08-25T17:01:38.066Z,26.30
2018-08-25T17:04:06.412Z,26.30
2018-08-25T17:06:34.713Z,26.30
2018-08-25T17:09:05.097Z,26.20
2018-08-25T17:11:33.272Z,26.20
2018-08-25T17:14:01.438Z,26.20
2018-08-25T17:16:29.781Z,26.20
2018-08-25T17:18:57.943Z,26.20
2018-08-25T17:21:26.159Z,26.20
2018-08-25T17:23:54.327Z,26.20
2018-08-25T17:26:22.631Z,26.20
2018-08-25T17:28:51.073Z,26.10
2018-08-25T17:31:19.249Z,26.10
2018-08-25T17:33:47.849Z,26.10
2018-08-25T17:36:16.083Z,26.20
2018-08-25T17:38:44.669Z,26.20
2018-08-25T17:41:12.838Z,26.10
2018-08-25T17:43:41.020Z,26.10
2018-08-25T17:46:09.367Z,26.00
2018-08-25T17:48:37.527Z,26.10
2018-08-25T17:51:05.890Z,26.10
2018-08-25T17:53:34.733Z,26.10
2018-08-25T17:56:03.342Z,26.10
2018-08-25T17:58:31.512Z,26.10
2018-08-25T18:00:59.691Z,26.10
2018-08-25T18:03:28.132Z,26.10
2018-08-25T18:05:56.689Z,26.10
2018-08-25T18:08:24.927Z,26.10
2018-08-25T18:10:53.615Z,26.10
2018-08-25T18:13:22.065Z,26.10
2018-08-25T18:15:50.240Z,26.10
2018-08-25T18:18:18.412Z,26.00
2018-08-25T18:20:46.576Z,26.00
2018-08-25T18:23:14.838Z,26.10
2018-08-25T18:25:43.185Z,26.10
2018-08-25T18:28:11.599Z,26.20
2018-08-25T18:30:39.828Z,26.20
2018-08-25T18:33:08.400Z,26.10
2018-08-25T18:35:36.569Z,26.30
2018-08-25T18:38:04.867Z,26.40
2018-08-25T18:40:33.227Z,26.40
2018-08-25T18:43:01.392Z,26.50
2018-08-25T18:45:29.542Z,26.50
2018-08-25T18:47:57.706Z,26.40
2018-08-25T18:50:25.892Z,26.40
2018-08-25T18:52:54.398Z,26.30
2018-08-25T18:55:22.584Z,26.30
2018-08-25T18:57:50.769Z,26.20
2018-08-25T19:00:18.953Z,26.10
2018-08-25T19:02:47.123Z,26.20
2018-08-25T19:05:15.316Z,26.10
2018-08-25T19:07:43.566Z,26.00
2018-08-25T19:10:12.572Z,26.00
2018-08-25T19:12:40.812Z,26.10
2018-08-25T19:15:09.002Z,26.00
2018-08-25T19:17:37.177Z,25.90
2018-08-25T19:20:05.345Z,25.90
2018-08-25T19:22:34.160Z,26.00
2018-08-25T19:25:02.633Z,26.00
2018-08-25T19:27:31.100Z,26.00
2018-08-25T19:29:59.279Z,25.90
2018-08-25T19:32:27.494Z,26.00
2018-08-25T19:34:55.882Z,26.00
2018-08-25T19:37:24.292Z,26.10
2018-08-25T19:39:52.639Z,26.10
2018-08-25T19:42:21.133Z,26.00
2018-08-25T19:44:49.336Z,26.00
2018-08-25T19:47:17.538Z,25.90
2018-08-25T19:49:45.741Z,25.90
2018-08-25T19:52:13.978Z,26.00
2018-08-25T19:54:42.153Z,25.90
2018-08-25T19:57:10.316Z,25.90
2018-08-25T19:59:38.500Z,26.00
2018-08-25T20:02:06.721Z,26.00
2018-08-25T20:04:34.919Z,26.10
2018-08-25T20:07:03.233Z,26.00
2018-08-25T20:09:31.527Z,25.90
2018-08-25T20:11:59.771Z,26.00
2018-08-25T20:14:31.728Z,25.90
2018-08-25T20:17:00.244Z,25.90
2018-08-25T20:19:28.441Z,25.90
2018-08-25T20:21:56.747Z,25.90
2018-08-25T20:24:25.129Z,26.00
2018-08-25T20:26:53.502Z,25.90
2018-08-25T20:29:21.664Z,25.90
2018-08-25T20:31:49.942Z,26.00
2018-08-25T20:34:18.116Z,26.00
2018-08-25T20:36:46.347Z,25.90
2018-08-25T20:39:14.558Z,25.90
2018-08-25T20:41:42.764Z,26.00
2018-08-25T20:44:10.919Z,26.00
2018-08-25T20:46:39.303Z,26.00
2018-08-25T20:49:07.489Z,26.00
2018-08-25T20:51:36.129Z,25.90
2018-08-25T20:54:04.319Z,25.90
2018-08-25T20:56:33.266Z,25.90
2018-08-25T20:59:01.926Z,25.90
2018-08-25T21:01:30.091Z,25.90
2018-08-25T21:03:58.329Z,25.80
2018-08-25T21:06:26.508Z,25.90
2018-08-25T21:08:54.679Z,25.80
2018-08-25T21:11:22.963Z,25.80
2018-08-25T21:13:51.176Z,25.70
2018-08-25T21:16:19.498Z,25.80
2018-08-25T21:18:47.826Z,25.80
2018-08-25T21:21:16.022Z,25.70
2018-08-25T21:23:44.168Z,25.70
2018-08-25T21:26:12.313Z,25.70
2018-08-25T21:28:40.479Z,25.70
2018-08-25T21:31:08.810Z,25.70
2018-08-25T21:33:36.969Z,25.70
2018-08-25T21:36:05.462Z,25.70
2018-08-25T21:38:33.893Z,25.60
2018-08-25T21:41:02.093Z,25.80
2018-08-25T21:43:30.246Z,25.70
2018-08-25T21:45:58.408Z,25.70
2018-08-25T21:48:26.566Z,25.70
2018-08-25T21:50:54.757Z,25.70
2018-08-25T21:53:23.131Z,25.70
2018-08-25T21:55:51.287Z,25.70
2018-08-25T21:58:19.431Z,25.70
2018-08-25T22:00:53.138Z,25.60
2018-08-25T22:03:21.293Z,25.60
2018-08-25T22:05:49.538Z,25.60
2018-08-25T22:11:02.761Z,25.70
2018-08-25T22:13:31.020Z,25.60
2018-08-25T22:15:59.228Z,25.70
2018-08-25T22:18:27.393Z,25.60
2018-08-25T22:20:55.556Z,25.60
2018-08-25T22:23:23.718Z,25.60
2018-08-25T22:25:51.904Z,25.60
2018-08-25T22:28:20.080Z,25.60
2018-08-25T22:30:48.252Z,25.50
2018-08-25T22:33:16.417Z,25.60
2018-08-25T22:35:44.581Z,25.60
2018-08-25T22:38:12.741Z,25.60
2018-08-25T22:40:40.902Z,25.70
2018-08-25T22:43:09.073Z,25.60
2018-08-25T22:45:37.249Z,25.50
2018-08-25T22:48:05.407Z,25.60
2018-08-25T22:50:33.563Z,25.60
2018-08-25T22:53:01.746Z,25.60
2018-08-25T22:55:29.892Z,25.50
2018-08-25T22:57:58.049Z,25.50
2018-08-25T23:00:26.200Z,25.60
2018-08-25T23:02:54.407Z,25.60
2018-08-25T23:05:22.572Z,25.60
2018-08-25T23:07:50.721Z,25.70
2018-08-25T23:10:18.874Z,25.60
2018-08-25T23:12:47.155Z,25.60
2018-08-25T23:15:15.318Z,25.60
2018-08-25T23:17:43.485Z,25.60
2018-08-25T23:20:11.648Z,25.60
2018-08-25T23:22:39.812Z,25.60
2018-08-25T23:25:07.976Z,25.60
2018-08-25T23:27:36.141Z,25.50
2018-08-25T23:30:04.380Z,25.50
2018-08-25T23:32:32.529Z,25.50
2018-08-25T23:35:00.696Z,25.50
2018-08-25T23:37:28.849Z,25.60
2018-08-25T23:39:57.028Z,25.60
2018-08-25T23:42:25.194Z,25.60
2018-08-25T23:44:53.345Z,25.50
2018-08-25T23:47:21.529Z,25.50
2018-08-25T23:49:49.683Z,25.60
2018-08-25T23:52:17.850Z,25.50
2018-08-25T23:54:46.024Z,25.60
2018-08-25T23:57:14.193Z,25.50
2018-08-25T23:59:42.357Z,25.50
